sensor_id;sensor_type;location;lat;lon;timestamp;temperature;humidity
3678;DHT22;1855;50.934;6.958;2024-01-11T00:02:01;-3.40;99.90
3678;DHT22;1855;50.934;6.958;2024-01-11T00:04:28;-3.40;99.90
3678;DHT22;1855;50.934;6.958;2024-01-11T00:06:55;-3.40;99.90
3678;DHT22;1855;50.934;6.958;2024-01-11T00:09:21;-3.30;99.90
3678;DHT22;1855;50.934;6.958;2024-01-11T00:11:49;-3.30;99.90
3678;DHT22;1855;50.934;6.958;2024-01-11T00:14:15;-3.30;99.90
3678;DHT22;1855;50.934;6.958;2024-01-11T00:16:42;-3.30;99.90
3678;DHT22;1855;50.934;6.958;2024-01-11T00:19:10;-3.30;99.90
3678;DHT22;1855;50.934;6.958;2024-01-11T00:21:37;-3.30;99.90
3678;DHT22;1855;50.934;6.958;2024-01-11T00:24:04;-3.40;99.90
3678;DHT22;1855;50.934;6.958;2024-01-11T00:26:29;-3.40;99.90
3678;DHT22;1855;50.934;6.958;2024-01-11T00:28:56;-3.40;99.90
3678;DHT22;1855;50.934;6.958;2024-01-11T00:31:23;-3.50;99.90
3678;DHT22;1855;50.934;6.958;2024-01-11T00:33:50;-3.40;99.90
3678;DHT22;1855;50.934;6.958;2024-01-11T00:36:20;-3.40;99.90
3678;DHT22;1855;50.934;6.958;2024-01-11T00:38:47;-3.40;99.90
3678;DHT22;1855;50.934;6.958;2024-01-11T00:41:14;-3.40;99.90
3678;DHT22;1855;50.934;6.958;2024-01-11T00:43:40;-3.40;99.90
3678;DHT22;1855;50.934;6.958;2024-01-11T00:46:07;-3.40;99.90
3678;DHT22;1855;50.934;6.958;2024-01-11T00:48:34;-3.40;99.90
3678;DHT22;1855;50.934;6.958;2024-01-11T00:51:01;-3.50;99.90
3678;DHT22;1855;50.934;6.958;2024-01-11T00:53:29;-3.40;99.90
3678;DHT22;1855;50.934;6.958;2024-01-11T00:55:56;-3.40;99.90
3678;DHT22;1855;50.934;6.958;2024-01-11T00:58:23;-3.40;99.90
3678;DHT22;1855;50.934;6.958;2024-01-11T01:00:50;-3.40;99.90
3678;DHT22;1855;50.934;6.958;2024-01-11T01:03:18;-3.40;99.90
3678;DHT22;1855;50.934;6.958;2024-01-11T01:05:44;-3.50;99.90
3678;DHT22;1855;50.934;6.958;2024-01-11T01:08:11;-3.50;99.90
3678;DHT22;1855;50.934;6.958;2024-01-11T01:10:39;-3.50;99.90
3678;DHT22;1855;50.934;6.958;2024-01-11T01:13:06;-3.60;99.90
3678;DHT22;1855;50.934;6.958;2024-01-11T01:15:33;-3.50;99.90
3678;DHT22;1855;50.934;6.958;2024-01-11T01:18:00;-3.50;99.90
3678;DHT22;1855;50.934;6.958;2024-01-11T01:20:26;-3.50;99.90
3678;DHT22;1855;50.934;6.958;2024-01-11T01:22:53;-3.50;99.90
3678;DHT22;1855;50.934;6.958;2024-01-11T01:25:20;-3.50;99.90
3678;DHT22;1855;50.934;6.958;2024-01-11T01:27:48;-3.50;99.90
3678;DHT22;1855;50.934;6.958;2024-01-11T01:30:15;-3.50;99.90
3678;DHT22;1855;50.934;6.958;2024-01-11T01:32:41;-3.50;99.90
3678;DHT22;1855;50.934;6.958;2024-01-11T01:35:08;-3.50;99.90
3678;DHT22;1855;50.934;6.958;2024-01-11T01:37:35;-3.50;99.90
3678;DHT22;1855;50.934;6.958;2024-01-11T01:40:02;-3.50;99.90
3678;DHT22;1855;50.934;6.958;2024-01-11T01:42:28;-3.50;99.90
3678;DHT22;1855;50.934;6.958;2024-01-11T01:44:56;-3.40;99.90
3678;DHT22;1855;50.934;6.958;2024-01-11T01:47:23;-3.40;99.90
3678;DHT22;1855;50.934;6.958;2024-01-11T01:49:50;-3.40;99.90
3678;DHT22;1855;50.934;6.958;2024-01-11T01:52:17;-3.40;99.90
3678;DHT22;1855;50.934;6.958;2024-01-11T01:54:46;-3.50;99.90
3678;DHT22;1855;50.934;6.958;2024-01-11T01:57:14;-3.50;99.90
3678;DHT22;1855;50.934;6.958;2024-01-11T01:59:41;-3.50;99.90
3678;DHT22;1855;50.934;6.958;2024-01-11T02:02:10;-3.50;99.90
3678;DHT22;1855;50.934;6.958;2024-01-11T02:04:37;-3.60;99.90
3678;DHT22;1855;50.934;6.958;2024-01-11T02:07:04;-3.60;99.90
3678;DHT22;1855;50.934;6.958;2024-01-11T02:09:33;-3.60;99.90
3678;DHT22;1855;50.934;6.958;2024-01-11T02:12:00;-3.60;99.90
3678;DHT22;1855;50.934;6.958;2024-01-11T02:14:28;-3.70;99.90
3678;DHT22;1855;50.934;6.958;2024-01-11T02:16:55;-3.70;99.90
3678;DHT22;1855;50.934;6.958;2024-01-11T02:19:23;-3.70;99.90
3678;DHT22;1855;50.934;6.958;2024-01-11T02:21:52;-3.80;99.90
3678;DHT22;1855;50.934;6.958;2024-01-11T02:24:22;-3.80;99.90
3678;DHT22;1855;50.934;6.958;2024-01-11T02:26:59;-3.80;99.90
3678;DHT22;1855;50.934;6.958;2024-01-11T02:29:26;-3.80;99.90
3678;DHT22;1855;50.934;6.958;2024-01-11T02:31:53;-3.90;99.90
3678;DHT22;1855;50.934;6.958;2024-01-11T02:34:20;-3.90;99.90
3678;DHT22;1855;50.934;6.958;2024-01-11T02:36:47;-3.90;99.90
3678;DHT22;1855;50.934;6.958;2024-01-11T02:39:16;-3.90;99.90
3678;DHT22;1855;50.934;6.958;2024-01-11T02:41:45;-4.00;99.90
3678;DHT22;1855;50.934;6.958;2024-01-11T02:44:11;-3.90;99.90
3678;DHT22;1855;50.934;6.958;2024-01-11T02:46:38;-3.90;99.90
3678;DHT22;1855;50.934;6.958;2024-01-11T02:49:05;-3.90;99.90
3678;DHT22;1855;50.934;6.958;2024-01-11T02:51:32;-3.90;99.90
3678;DHT22;1855;50.934;6.958;2024-01-11T02:53:58;-3.90;99.90
3678;DHT22;1855;50.934;6.958;2024-01-11T02:56:25;-3.90;99.90
3678;DHT22;1855;50.934;6.958;2024-01-11T02:58:53;-3.90;99.90
3678;DHT22;1855;50.934;6.958;2024-01-11T03:01:20;-3.90;99.90
3678;DHT22;1855;50.934;6.958;2024-01-11T03:03:47;-3.90;99.90
3678;DHT22;1855;50.934;6.958;2024-01-11T03:06:13;-4.00;99.90
3678;DHT22;1855;50.934;6.958;2024-01-11T03:08:40;-4.10;99.90
3678;DHT22;1855;50.934;6.958;2024-01-11T03:11:07;-4.10;99.90
3678;DHT22;1855;50.934;6.958;2024-01-11T03:13:34;-4.10;99.90
3678;DHT22;1855;50.934;6.958;2024-01-11T03:16:02;-4.10;99.90
3678;DHT22;1855;50.934;6.958;2024-01-11T03:18:29;-4.10;99.90
3678;DHT22;1855;50.934;6.958;2024-01-11T03:20:56;-4.00;99.90
3678;DHT22;1855;50.934;6.958;2024-01-11T03:23:23;-4.00;99.90
3678;DHT22;1855;50.934;6.958;2024-01-11T03:25:50;-4.00;99.90
3678;DHT22;1855;50.934;6.958;2024-01-11T03:28:17;-4.00;99.90
3678;DHT22;1855;50.934;6.958;2024-01-11T03:30:43;-4.10;99.90
3678;DHT22;1855;50.934;6.958;2024-01-11T03:33:11;-4.10;99.90
3678;DHT22;1855;50.934;6.958;2024-01-11T03:35:38;-4.10;99.90
3678;DHT22;1855;50.934;6.958;2024-01-11T03:38:05;-4.10;99.90
3678;DHT22;1855;50.934;6.958;2024-01-11T03:40:32;-4.20;99.90
3678;DHT22;1855;50.934;6.958;2024-01-11T03:42:59;-4.20;99.90
3678;DHT22;1855;50.934;6.958;2024-01-11T03:45:25;-4.30;99.90
3678;DHT22;1855;50.934;6.958;2024-01-11T03:47:52;-4.30;99.90
3678;DHT22;1855;50.934;6.958;2024-01-11T03:50:20;-4.20;99.90
3678;DHT22;1855;50.934;6.958;2024-01-11T03:52:47;-4.30;99.90
3678;DHT22;1855;50.934;6.958;2024-01-11T03:55:14;-4.30;99.90
3678;DHT22;1855;50.934;6.958;2024-01-11T03:57:41;-4.40;99.90
3678;DHT22;1855;50.934;6.958;2024-01-11T04:00:08;-4.40;99.90
3678;DHT22;1855;50.934;6.958;2024-01-11T04:02:35;-4.40;99.90
3678;DHT22;1855;50.934;6.958;2024-01-11T04:05:02;-4.30;99.90
3678;DHT22;1855;50.934;6.958;2024-01-11T04:07:30;-4.30;99.90
3678;DHT22;1855;50.934;6.958;2024-01-11T04:09:57;-4.40;99.90
3678;DHT22;1855;50.934;6.958;2024-01-11T04:12:24;-4.30;99.90
3678;DHT22;1855;50.934;6.958;2024-01-11T04:14:51;-4.30;99.90
3678;DHT22;1855;50.934;6.958;2024-01-11T04:17:17;-4.30;99.90
3678;DHT22;1855;50.934;6.958;2024-01-11T04:19:44;-4.30;99.90
3678;DHT22;1855;50.934;6.958;2024-01-11T04:22:11;-4.30;99.90
3678;DHT22;1855;50.934;6.958;2024-01-11T04:24:41;-4.30;99.90
3678;DHT22;1855;50.934;6.958;2024-01-11T04:27:08;-4.30;99.90
3678;DHT22;1855;50.934;6.958;2024-01-11T04:29:34;-4.30;99.90
3678;DHT22;1855;50.934;6.958;2024-01-11T04:32:01;-4.30;99.90
3678;DHT22;1855;50.934;6.958;2024-01-11T04:34:28;-4.30;99.90
3678;DHT22;1855;50.934;6.958;2024-01-11T04:36:55;-4.30;99.90
3678;DHT22;1855;50.934;6.958;2024-01-11T04:39:22;-4.40;99.90
3678;DHT22;1855;50.934;6.958;2024-01-11T04:41:50;-4.40;99.90
3678;DHT22;1855;50.934;6.958;2024-01-11T04:44:16;-4.50;99.90
3678;DHT22;1855;50.934;6.958;2024-01-11T04:46:43;-4.50;99.90
3678;DHT22;1855;50.934;6.958;2024-01-11T04:49:10;-4.50;99.90
3678;DHT22;1855;50.934;6.958;2024-01-11T04:51:37;-4.50;99.90
3678;DHT22;1855;50.934;6.958;2024-01-11T04:54:03;-4.50;99.90
3678;DHT22;1855;50.934;6.958;2024-01-11T04:56:30;-4.50;99.90
3678;DHT22;1855;50.934;6.958;2024-01-11T04:58:58;-4.40;99.90
3678;DHT22;1855;50.934;6.958;2024-01-11T05:01:25;-4.40;99.90
3678;DHT22;1855;50.934;6.958;2024-01-11T05:03:51;-4.40;99.90
3678;DHT22;1855;50.934;6.958;2024-01-11T05:06:19;-4.30;99.90
3678;DHT22;1855;50.934;6.958;2024-01-11T05:08:47;-4.30;99.90
3678;DHT22;1855;50.934;6.958;2024-01-11T05:11:17;-4.40;99.90
3678;DHT22;1855;50.934;6.958;2024-01-11T05:13:43;-4.40;99.90
3678;DHT22;1855;50.934;6.958;2024-01-11T05:16:21;-4.40;99.90
3678;DHT22;1855;50.934;6.958;2024-01-11T05:18:49;-4.40;99.90
3678;DHT22;1855;50.934;6.958;2024-01-11T05:21:15;-4.40;99.90
3678;DHT22;1855;50.934;6.958;2024-01-11T05:23:42;-4.40;99.90
3678;DHT22;1855;50.934;6.958;2024-01-11T05:26:09;-4.50;99.90
3678;DHT22;1855;50.934;6.958;2024-01-11T05:28:36;-4.50;99.90
3678;DHT22;1855;50.934;6.958;2024-01-11T05:31:05;-4.50;99.90
3678;DHT22;1855;50.934;6.958;2024-01-11T05:33:34;-4.50;99.90
3678;DHT22;1855;50.934;6.958;2024-01-11T05:36:01;-4.60;99.90
3678;DHT22;1855;50.934;6.958;2024-01-11T05:38:28;-4.60;99.90
3678;DHT22;1855;50.934;6.958;2024-01-11T05:40:55;-4.60;99.90
3678;DHT22;1855;50.934;6.958;2024-01-11T05:43:22;-4.70;99.90
3678;DHT22;1855;50.934;6.958;2024-01-11T05:45:48;-4.70;99.90
3678;DHT22;1855;50.934;6.958;2024-01-11T05:48:15;-4.60;99.90
3678;DHT22;1855;50.934;6.958;2024-01-11T05:50:44;-4.60;99.90
3678;DHT22;1855;50.934;6.958;2024-01-11T05:53:11;-4.50;99.90
3678;DHT22;1855;50.934;6.958;2024-01-11T05:55:37;-4.50;99.90
3678;DHT22;1855;50.934;6.958;2024-01-11T05:58:04;-4.50;99.90
3678;DHT22;1855;50.934;6.958;2024-01-11T06:00:31;-4.50;99.90
3678;DHT22;1855;50.934;6.958;2024-01-11T06:02:58;-4.50;99.90
3678;DHT22;1855;50.934;6.958;2024-01-11T06:05:25;-4.40;99.90
3678;DHT22;1855;50.934;6.958;2024-01-11T06:07:53;-4.40;99.90
3678;DHT22;1855;50.934;6.958;2024-01-11T06:10:20;-4.50;99.90
3678;DHT22;1855;50.934;6.958;2024-01-11T06:12:47;-4.50;99.90
3678;DHT22;1855;50.934;6.958;2024-01-11T06:15:13;-4.50;99.90
3678;DHT22;1855;50.934;6.958;2024-01-11T06:17:40;-4.50;99.90
3678;DHT22;1855;50.934;6.958;2024-01-11T06:20:08;-4.50;99.90
3678;DHT22;1855;50.934;6.958;2024-01-11T06:22:35;-4.50;99.90
3678;DHT22;1855;50.934;6.958;2024-01-11T06:25:04;-4.50;99.90
3678;DHT22;1855;50.934;6.958;2024-01-11T06:27:30;-4.50;99.90
3678;DHT22;1855;50.934;6.958;2024-01-11T06:29:57;-4.50;99.90
3678;DHT22;1855;50.934;6.958;2024-01-11T06:32:24;-4.50;99.90
3678;DHT22;1855;50.934;6.958;2024-01-11T06:34:51;-4.50;99.90
3678;DHT22;1855;50.934;6.958;2024-01-11T06:37:18;-4.50;99.90
3678;DHT22;1855;50.934;6.958;2024-01-11T06:39:44;-4.50;99.90
3678;DHT22;1855;50.934;6.958;2024-01-11T06:42:12;-4.50;99.90
3678;DHT22;1855;50.934;6.958;2024-01-11T06:44:40;-4.50;99.90
3678;DHT22;1855;50.934;6.958;2024-01-11T06:47:06;-4.60;99.90
3678;DHT22;1855;50.934;6.958;2024-01-11T06:49:33;-4.60;99.90
3678;DHT22;1855;50.934;6.958;2024-01-11T06:52:00;-4.70;99.90
3678;DHT22;1855;50.934;6.958;2024-01-11T06:54:28;-4.70;99.90
3678;DHT22;1855;50.934;6.958;2024-01-11T06:56:55;-4.80;99.90
3678;DHT22;1855;50.934;6.958;2024-01-11T06:59:23;-4.80;99.90
3678;DHT22;1855;50.934;6.958;2024-01-11T07:01:50;-4.80;99.90
3678;DHT22;1855;50.934;6.958;2024-01-11T07:04:17;-4.80;99.90
3678;DHT22;1855;50.934;6.958;2024-01-11T07:06:44;-4.90;99.90
3678;DHT22;1855;50.934;6.958;2024-01-11T07:09:10;-4.90;99.90
3678;DHT22;1855;50.934;6.958;2024-01-11T07:11:37;-4.90;99.90
3678;DHT22;1855;50.934;6.958;2024-01-11T07:14:04;-4.90;99.90
3678;DHT22;1855;50.934;6.958;2024-01-11T07:16:32;-4.90;99.90
3678;DHT22;1855;50.934;6.958;2024-01-11T07:18:59;-5.00;99.90
3678;DHT22;1855;50.934;6.958;2024-01-11T07:21:26;-5.00;99.90
3678;DHT22;1855;50.934;6.958;2024-01-11T07:23:56;-5.00;99.90
3678;DHT22;1855;50.934;6.958;2024-01-11T07:26:23;-5.00;99.90
3678;DHT22;1855;50.934;6.958;2024-01-11T07:28:50;-5.10;99.90
3678;DHT22;1855;50.934;6.958;2024-01-11T07:31:17;-5.10;99.90
3678;DHT22;1855;50.934;6.958;2024-01-11T07:33:45;-5.10;99.90
3678;DHT22;1855;50.934;6.958;2024-01-11T07:36:12;-5.10;99.90
3678;DHT22;1855;50.934;6.958;2024-01-11T07:38:39;-5.10;99.90
3678;DHT22;1855;50.934;6.958;2024-01-11T07:41:06;-5.20;99.90
3678;DHT22;1855;50.934;6.958;2024-01-11T07:43:33;-5.20;99.90
3678;DHT22;1855;50.934;6.958;2024-01-11T07:46:01;-5.20;99.90
3678;DHT22;1855;50.934;6.958;2024-01-11T07:48:29;-5.20;99.90
3678;DHT22;1855;50.934;6.958;2024-01-11T07:50:57;-5.20;99.90
3678;DHT22;1855;50.934;6.958;2024-01-11T07:53:24;-5.20;99.90
3678;DHT22;1855;50.934;6.958;2024-01-11T07:55:51;-5.10;99.90
3678;DHT22;1855;50.934;6.958;2024-01-11T07:58:18;-5.10;99.90
3678;DHT22;1855;50.934;6.958;2024-01-11T08:00:46;-5.00;99.90
3678;DHT22;1855;50.934;6.958;2024-01-11T08:03:13;-5.00;99.90
3678;DHT22;1855;50.934;6.958;2024-01-11T08:05:40;-4.90;99.90
3678;DHT22;1855;50.934;6.958;2024-01-11T08:08:10;-4.80;99.90
3678;DHT22;1855;50.934;6.958;2024-01-11T08:10:36;-4.80;99.90
3678;DHT22;1855;50.934;6.958;2024-01-11T08:13:03;-4.70;99.90
3678;DHT22;1855;50.934;6.958;2024-01-11T08:15:30;-4.70;99.90
3678;DHT22;1855;50.934;6.958;2024-01-11T08:17:57;-4.60;99.90
3678;DHT22;1855;50.934;6.958;2024-01-11T08:20:24;-4.60;99.90
3678;DHT22;1855;50.934;6.958;2024-01-11T08:22:50;-4.50;99.90
3678;DHT22;1855;50.934;6.958;2024-01-11T08:25:18;-4.40;99.90
3678;DHT22;1855;50.934;6.958;2024-01-11T08:27:45;-4.30;99.90
3678;DHT22;1855;50.934;6.958;2024-01-11T08:30:12;-4.20;99.90
3678;DHT22;1855;50.934;6.958;2024-01-11T08:32:39;-4.00;99.90
3678;DHT22;1855;50.934;6.958;2024-01-11T08:35:08;-3.80;99.90
3678;DHT22;1855;50.934;6.958;2024-01-11T08:37:37;-3.70;99.90
3678;DHT22;1855;50.934;6.958;2024-01-11T08:40:05;-3.50;99.90
3678;DHT22;1855;50.934;6.958;2024-01-11T08:42:33;-3.40;99.90
3678;DHT22;1855;50.934;6.958;2024-01-11T08:45:00;-3.20;99.90
3678;DHT22;1855;50.934;6.958;2024-01-11T08:47:32;-3.20;99.90
3678;DHT22;1855;50.934;6.958;2024-01-11T08:49:59;-3.20;99.90
3678;DHT22;1855;50.934;6.958;2024-01-11T08:52:25;-3.10;99.90
3678;DHT22;1855;50.934;6.958;2024-01-11T08:54:52;-2.90;99.90
3678;DHT22;1855;50.934;6.958;2024-01-11T08:57:19;-2.80;99.90
3678;DHT22;1855;50.934;6.958;2024-01-11T08:59:47;-2.70;99.90
3678;DHT22;1855;50.934;6.958;2024-01-11T09:02:13;-2.60;99.90
3678;DHT22;1855;50.934;6.958;2024-01-11T09:04:40;-2.50;99.90
3678;DHT22;1855;50.934;6.958;2024-01-11T09:07:07;-2.30;99.90
3678;DHT22;1855;50.934;6.958;2024-01-11T09:09:34;-2.20;99.90
3678;DHT22;1855;50.934;6.958;2024-01-11T09:12:00;-2.20;99.90
3678;DHT22;1855;50.934;6.958;2024-01-11T09:14:28;-2.00;99.90
3678;DHT22;1855;50.934;6.958;2024-01-11T09:16:56;-1.90;99.90
3678;DHT22;1855;50.934;6.958;2024-01-11T09:19:23;-1.80;99.90
3678;DHT22;1855;50.934;6.958;2024-01-11T09:21:50;-1.60;99.90
3678;DHT22;1855;50.934;6.958;2024-01-11T09:24:17;-1.50;99.90
3678;DHT22;1855;50.934;6.958;2024-01-11T09:26:44;-1.30;99.90
3678;DHT22;1855;50.934;6.958;2024-01-11T09:29:11;-1.20;99.90
3678;DHT22;1855;50.934;6.958;2024-01-11T09:31:37;-1.10;99.90
3678;DHT22;1855;50.934;6.958;2024-01-11T09:34:05;-1.00;99.90
3678;DHT22;1855;50.934;6.958;2024-01-11T09:36:33;-1.00;99.90
3678;DHT22;1855;50.934;6.958;2024-01-11T09:39:00;-1.00;99.90
3678;DHT22;1855;50.934;6.958;2024-01-11T09:41:28;-0.90;99.90
3678;DHT22;1855;50.934;6.958;2024-01-11T09:43:58;-0.80;99.90
3678;DHT22;1855;50.934;6.958;2024-01-11T09:46:28;-0.60;99.90
3678;DHT22;1855;50.934;6.958;2024-01-11T09:48:55;-0.40;99.90
3678;DHT22;1855;50.934;6.958;2024-01-11T09:51:25;-0.20;99.90
3678;DHT22;1855;50.934;6.958;2024-01-11T09:53:55;-0.10;99.90
3678;DHT22;1855;50.934;6.958;2024-01-11T09:56:22;0.10;99.90
3678;DHT22;1855;50.934;6.958;2024-01-11T09:58:50;0.20;99.90
3678;DHT22;1855;50.934;6.958;2024-01-11T10:01:17;0.20;99.90
3678;DHT22;1855;50.934;6.958;2024-01-11T10:03:44;0.30;99.90
3678;DHT22;1855;50.934;6.958;2024-01-11T10:06:12;0.40;99.90
3678;DHT22;1855;50.934;6.958;2024-01-11T10:08:42;0.40;99.90
3678;DHT22;1855;50.934;6.958;2024-01-11T10:11:09;0.50;99.40
3678;DHT22;1855;50.934;6.958;2024-01-11T10:13:36;0.50;98.70
3678;DHT22;1855;50.934;6.958;2024-01-11T10:16:08;0.50;98.50
3678;DHT22;1855;50.934;6.958;2024-01-11T10:18:35;0.50;98.30
3678;DHT22;1855;50.934;6.958;2024-01-11T10:21:02;0.60;98.90
3678;DHT22;1855;50.934;6.958;2024-01-11T10:23:29;0.70;98.70
3678;DHT22;1855;50.934;6.958;2024-01-11T10:25:57;0.90;98.60
3678;DHT22;1855;50.934;6.958;2024-01-11T10:28:25;1.00;98.60
3678;DHT22;1855;50.934;6.958;2024-01-11T10:30:52;1.20;97.90
3678;DHT22;1855;50.934;6.958;2024-01-11T10:33:20;1.30;97.30
3678;DHT22;1855;50.934;6.958;2024-01-11T10:35:46;1.50;96.90
3678;DHT22;1855;50.934;6.958;2024-01-11T10:38:14;1.60;96.10
3678;DHT22;1855;50.934;6.958;2024-01-11T10:40:41;1.70;95.30
3678;DHT22;1855;50.934;6.958;2024-01-11T10:43:10;1.80;94.90
3678;DHT22;1855;50.934;6.958;2024-01-11T10:45:37;1.90;94.10
3678;DHT22;1855;50.934;6.958;2024-01-11T10:48:07;1.90;93.80
3678;DHT22;1855;50.934;6.958;2024-01-11T10:50:35;2.00;93.80
3678;DHT22;1855;50.934;6.958;2024-01-11T10:53:05;2.00;93.50
3678;DHT22;1855;50.934;6.958;2024-01-11T10:55:36;2.00;93.50
3678;DHT22;1855;50.934;6.958;2024-01-11T10:58:03;2.00;93.20
3678;DHT22;1855;50.934;6.958;2024-01-11T11:00:34;2.00;93.20
3678;DHT22;1855;50.934;6.958;2024-01-11T11:03:03;1.90;93.80
3678;DHT22;1855;50.934;6.958;2024-01-11T11:05:32;2.00;93.60
3678;DHT22;1855;50.934;6.958;2024-01-11T11:08:01;1.90;92.80
3678;DHT22;1855;50.934;6.958;2024-01-11T11:10:28;1.80;94.10
3678;DHT22;1855;50.934;6.958;2024-01-11T11:12:57;1.90;94.20
3678;DHT22;1855;50.934;6.958;2024-01-11T11:15:27;1.80;94.70
3678;DHT22;1855;50.934;6.958;2024-01-11T11:17:55;1.90;95.40
3678;DHT22;1855;50.934;6.958;2024-01-11T11:20:22;2.00;94.20
3678;DHT22;1855;50.934;6.958;2024-01-11T11:23:03;2.00;95.00
3678;DHT22;1855;50.934;6.958;2024-01-11T11:25:30;2.10;93.30
3678;DHT22;1855;50.934;6.958;2024-01-11T11:27:57;2.10;92.00
3678;DHT22;1855;50.934;6.958;2024-01-11T11:30:24;2.10;92.00
3678;DHT22;1855;50.934;6.958;2024-01-11T11:32:51;2.10;91.50
3678;DHT22;1855;50.934;6.958;2024-01-11T11:35:20;2.20;91.20
3678;DHT22;1855;50.934;6.958;2024-01-11T11:37:49;2.30;90.40
3678;DHT22;1855;50.934;6.958;2024-01-11T11:40:19;2.30;90.10
3678;DHT22;1855;50.934;6.958;2024-01-11T11:42:47;2.40;92.40
3678;DHT22;1855;50.934;6.958;2024-01-11T11:45:24;2.40;88.00
3678;DHT22;1855;50.934;6.958;2024-01-11T11:47:51;2.40;85.10
3678;DHT22;1855;50.934;6.958;2024-01-11T11:50:22;2.30;85.50
3678;DHT22;1855;50.934;6.958;2024-01-11T11:52:53;2.40;84.00
3678;DHT22;1855;50.934;6.958;2024-01-11T11:55:22;2.60;83.20
3678;DHT22;1855;50.934;6.958;2024-01-11T11:57:50;2.80;81.40
3678;DHT22;1855;50.934;6.958;2024-01-11T12:00:17;3.10;77.20
3678;DHT22;1855;50.934;6.958;2024-01-11T12:02:44;3.30;75.60
3678;DHT22;1855;50.934;6.958;2024-01-11T12:05:13;3.50;74.80
3678;DHT22;1855;50.934;6.958;2024-01-11T12:07:41;3.90;72.90
3678;DHT22;1855;50.934;6.958;2024-01-11T12:10:08;4.30;71.50
3678;DHT22;1855;50.934;6.958;2024-01-11T12:12:37;4.70;69.70
3678;DHT22;1855;50.934;6.958;2024-01-11T12:15:05;5.20;67.60
3678;DHT22;1855;50.934;6.958;2024-01-11T12:17:33;5.80;65.80
3678;DHT22;1855;50.934;6.958;2024-01-11T12:19:59;6.70;62.00
3678;DHT22;1855;50.934;6.958;2024-01-11T12:22:26;7.30;58.90
3678;DHT22;1855;50.934;6.958;2024-01-11T12:24:55;7.50;57.30
3678;DHT22;1855;50.934;6.958;2024-01-11T12:27:22;7.60;55.00
3678;DHT22;1855;50.934;6.958;2024-01-11T12:29:49;7.30;54.30
3678;DHT22;1855;50.934;6.958;2024-01-11T12:32:17;6.90;54.70
3678;DHT22;1855;50.934;6.958;2024-01-11T12:34:44;6.50;55.30
3678;DHT22;1855;50.934;6.958;2024-01-11T12:37:11;6.20;56.60
3678;DHT22;1855;50.934;6.958;2024-01-11T12:39:38;6.00;58.00
3678;DHT22;1855;50.934;6.958;2024-01-11T12:42:06;5.90;58.40
3678;DHT22;1855;50.934;6.958;2024-01-11T12:44:34;5.80;58.70
3678;DHT22;1855;50.934;6.958;2024-01-11T12:47:04;5.90;58.90
3678;DHT22;1855;50.934;6.958;2024-01-11T12:49:31;5.90;57.80
3678;DHT22;1855;50.934;6.958;2024-01-11T12:51:58;5.70;58.40
3678;DHT22;1855;50.934;6.958;2024-01-11T12:54:25;5.60;59.00
3678;DHT22;1855;50.934;6.958;2024-01-11T12:56:52;5.50;59.20
3678;DHT22;1855;50.934;6.958;2024-01-11T12:59:25;5.50;59.50
3678;DHT22;1855;50.934;6.958;2024-01-11T13:01:52;5.20;60.80
3678;DHT22;1855;50.934;6.958;2024-01-11T13:04:18;5.10;61.30
3678;DHT22;1855;50.934;6.958;2024-01-11T13:06:46;5.30;61.50
3678;DHT22;1855;50.934;6.958;2024-01-11T13:09:12;5.50;62.10
3678;DHT22;1855;50.934;6.958;2024-01-11T13:11:39;5.70;61.60
3678;DHT22;1855;50.934;6.958;2024-01-11T13:14:06;5.80;60.80
3678;DHT22;1855;50.934;6.958;2024-01-11T13:16:41;6.10;60.40
3678;DHT22;1855;50.934;6.958;2024-01-11T13:19:07;6.30;58.70
3678;DHT22;1855;50.934;6.958;2024-01-11T13:21:36;6.40;58.30
3678;DHT22;1855;50.934;6.958;2024-01-11T13:24:04;6.50;58.40
3678;DHT22;1855;50.934;6.958;2024-01-11T13:26:31;6.50;57.60
3678;DHT22;1855;50.934;6.958;2024-01-11T13:28:57;6.50;58.00
3678;DHT22;1855;50.934;6.958;2024-01-11T13:31:24;6.50;57.70
3678;DHT22;1855;50.934;6.958;2024-01-11T13:33:52;6.40;57.60
3678;DHT22;1855;50.934;6.958;2024-01-11T13:36:20;6.20;58.60
3678;DHT22;1855;50.934;6.958;2024-01-11T13:38:47;5.90;59.60
3678;DHT22;1855;50.934;6.958;2024-01-11T13:41:14;5.60;59.30
3678;DHT22;1855;50.934;6.958;2024-01-11T13:43:42;5.50;59.80
3678;DHT22;1855;50.934;6.958;2024-01-11T13:46:09;5.40;60.40
3678;DHT22;1855;50.934;6.958;2024-01-11T13:48:38;5.40;60.90
3678;DHT22;1855;50.934;6.958;2024-01-11T13:51:06;5.40;60.60
3678;DHT22;1855;50.934;6.958;2024-01-11T13:53:34;5.30;60.00
3678;DHT22;1855;50.934;6.958;2024-01-11T13:56:01;5.10;60.40
3678;DHT22;1855;50.934;6.958;2024-01-11T13:58:28;4.90;61.50
3678;DHT22;1855;50.934;6.958;2024-01-11T14:00:55;4.80;61.80
3678;DHT22;1855;50.934;6.958;2024-01-11T14:03:21;4.60;62.10
3678;DHT22;1855;50.934;6.958;2024-01-11T14:05:48;4.50;62.30
3678;DHT22;1855;50.934;6.958;2024-01-11T14:08:16;4.30;62.80
3678;DHT22;1855;50.934;6.958;2024-01-11T14:10:43;4.20;63.70
3678;DHT22;1855;50.934;6.958;2024-01-11T14:13:10;3.90;63.90
3678;DHT22;1855;50.934;6.958;2024-01-11T14:15:36;3.70;65.20
3678;DHT22;1855;50.934;6.958;2024-01-11T14:18:04;3.50;66.10
3678;DHT22;1855;50.934;6.958;2024-01-11T14:20:31;3.30;66.00
3678;DHT22;1855;50.934;6.958;2024-01-11T14:22:59;3.20;67.10
3678;DHT22;1855;50.934;6.958;2024-01-11T14:25:27;3.10;67.70
3678;DHT22;1855;50.934;6.958;2024-01-11T14:27:57;3.00;67.80
3678;DHT22;1855;50.934;6.958;2024-01-11T14:30:25;2.90;67.90
3678;DHT22;1855;50.934;6.958;2024-01-11T14:32:51;2.90;68.70
3678;DHT22;1855;50.934;6.958;2024-01-11T14:35:18;2.80;68.40
3678;DHT22;1855;50.934;6.958;2024-01-11T14:37:45;2.70;68.80
3678;DHT22;1855;50.934;6.958;2024-01-11T14:40:12;2.70;68.90
3678;DHT22;1855;50.934;6.958;2024-01-11T14:42:40;2.70;69.60
3678;DHT22;1855;50.934;6.958;2024-01-11T14:45:08;2.70;69.80
3678;DHT22;1855;50.934;6.958;2024-01-11T14:47:35;2.60;70.10
3678;DHT22;1855;50.934;6.958;2024-01-11T14:50:02;2.60;69.70
3678;DHT22;1855;50.934;6.958;2024-01-11T14:52:30;2.50;69.80
3678;DHT22;1855;50.934;6.958;2024-01-11T14:54:57;2.50;70.40
3678;DHT22;1855;50.934;6.958;2024-01-11T14:57:24;2.40;70.40
3678;DHT22;1855;50.934;6.958;2024-01-11T14:59:52;2.40;70.90
3678;DHT22;1855;50.934;6.958;2024-01-11T15:02:19;2.40;71.20
3678;DHT22;1855;50.934;6.958;2024-01-11T15:04:46;2.40;70.40
3678;DHT22;1855;50.934;6.958;2024-01-11T15:07:13;2.30;69.20
3678;DHT22;1855;50.934;6.958;2024-01-11T15:09:40;2.30;68.90
3678;DHT22;1855;50.934;6.958;2024-01-11T15:12:07;2.20;69.00
3678;DHT22;1855;50.934;6.958;2024-01-11T15:14:34;2.20;69.50
3678;DHT22;1855;50.934;6.958;2024-01-11T15:17:02;2.10;68.60
3678;DHT22;1855;50.934;6.958;2024-01-11T15:19:29;2.00;69.20
3678;DHT22;1855;50.934;6.958;2024-01-11T15:21:55;1.90;69.00
3678;DHT22;1855;50.934;6.958;2024-01-11T15:24:22;1.80;69.70
3678;DHT22;1855;50.934;6.958;2024-01-11T15:26:49;1.70;68.90
3678;DHT22;1855;50.934;6.958;2024-01-11T15:29:16;1.70;70.40
3678;DHT22;1855;50.934;6.958;2024-01-11T15:31:42;1.50;70.30
3678;DHT22;1855;50.934;6.958;2024-01-11T15:34:12;1.50;71.40
3678;DHT22;1855;50.934;6.958;2024-01-11T15:36:39;1.40;74.10
3678;DHT22;1855;50.934;6.958;2024-01-11T15:39:06;1.30;76.70
3678;DHT22;1855;50.934;6.958;2024-01-11T15:41:34;1.20;78.60
3678;DHT22;1855;50.934;6.958;2024-01-11T15:44:01;1.10;81.90
3678;DHT22;1855;50.934;6.958;2024-01-11T15:46:29;1.00;84.60
3678;DHT22;1855;50.934;6.958;2024-01-11T15:48:55;1.00;88.20
3678;DHT22;1855;50.934;6.958;2024-01-11T15:51:23;0.90;90.10
3678;DHT22;1855;50.934;6.958;2024-01-11T15:53:50;0.80;91.30
3678;DHT22;1855;50.934;6.958;2024-01-11T15:56:17;0.80;92.50
3678;DHT22;1855;50.934;6.958;2024-01-11T15:58:44;0.70;93.30
3678;DHT22;1855;50.934;6.958;2024-01-11T16:01:10;0.60;94.20
3678;DHT22;1855;50.934;6.958;2024-01-11T16:03:38;0.60;94.90
3678;DHT22;1855;50.934;6.958;2024-01-11T16:08:34;0.50;95.90
3678;DHT22;1855;50.934;6.958;2024-01-11T16:11:01;0.40;96.20